• Join FlightAware (Why Join?)
  • Login
  • US Flag 
05:14AM EDT


 

Airport Tracker/Info


-or-


 

Live Flight TrackerFlight Track Log ✈ TAM3902 ✈ 04-Sep-2013 ✈ SBSP / CGH - SBRJ / SDU

Flight Track Log - Related Links

Times and Time Zones

All times are in EDT time to prevent confusion due to time zone crossing. See the TAM3902 flight status page for this flight to view local times or setup timezone preferences in your user account.

Time Position Orientation Groundspeed Altitude Reporting Facility
EDT Latitude Longitude Course Direction KTS MPH feet Rate Location/Type
06:40AM -23.6250 -46.6600 71° East  Level FlightAware
06:43AM -23.5843 -46.4541 78° East  Level Estimated
06:44AM -23.5674 -46.3665 78° East  Level Estimated
06:45AM -23.5504 -46.2789 78° East  Level Estimated
06:46AM -23.5333 -46.1914 78° East  Level Estimated
06:47AM -23.5162 -46.1039 78° East  Level Estimated
06:48AM -23.4991 -46.0164 78° East  Level Estimated
06:49AM -23.4819 -45.9289 78° East  Level Estimated
06:50AM -23.4646 -45.8414 78° East  Level Estimated
06:51AM -23.4473 -45.7540 78° East  Level Estimated
06:52AM -23.4300 -45.6666 78° East  Level Estimated
06:53AM -23.4126 -45.5792 78° East  Level Estimated
06:54AM -23.3951 -45.4919 78° East  Level Estimated
06:55AM -23.3776 -45.4045 78° East  Level Estimated
06:56AM -23.3601 -45.3172 78° East  Level Estimated
06:57AM -23.3425 -45.2299 78° East  Level Estimated
06:58AM -23.3249 -45.1427 78° East  Level Estimated
06:59AM -23.3072 -45.0554 78° East  Level Estimated
07:00AM -23.2894 -44.9682 78° East  Level Estimated
07:01AM -23.2716 -44.8810 77° East  Level Estimated
07:02AM -23.2538 -44.7938 77° East  Level Estimated
07:03AM -23.2359 -44.7067 77° East  Level Estimated
07:04AM -23.2180 -44.6196 77° East  Level Estimated
07:05AM -23.2000 -44.5325 77° East  Level Estimated
07:06AM -23.1820 -44.4454 77° East  Level Estimated
07:07AM -23.1639 -44.3583 77° East  Level Estimated
07:08AM -23.1458 -44.2713 77° East  Level Estimated
07:09AM -23.1276 -44.1843 77° East  Level Estimated
07:10AM -23.1094 -44.0973 77° East  Level Estimated
07:11AM -23.0912 -44.0103 77° East  Level Estimated
07:12AM -23.0728 -43.9234 77° East  Level Estimated
07:13AM -23.0545 -43.8365 77° East  Level Estimated
07:14AM -23.0361 -43.7496 77° East  Level Estimated
07:15AM -23.0176 -43.6627 77° East  Level Estimated
07:16AM -22.9991 -43.5759 77° East  Level Estimated
07:17AM -22.9806 -43.4891 77° East  Level Estimated
07:18AM -22.9620 -43.4023 77° East  Level Estimated
07:19AM -22.9433 -43.3155 77° East  Level Estimated
07:20AM -22.9246 -43.2288 77° East  Level Estimated
07:21AM -22.9105 -43.1631 77° East  Level Estimated
07:22AM -22.9105 -43.1631 250° West  Level Estimated
07:23AM -22.9105 -43.1631 250° West  Level Estimated
07:24AM -22.9105 -43.1631 250° West  Level Estimated
07:25AM -22.9105 -43.1631 250° West  Level Estimated
07:26AM -22.9105 -43.1631 250° West  Level Estimated
07:27AM -22.9105 -43.1631 250° West  Level Estimated
07:28AM -22.9105 -43.1631 250° West  Level Estimated
07:29AM -22.9105 -43.1631 250° West  Level Estimated
07:30AM -22.9105 -43.1631 250° West  Level Estimated
07:31AM -22.9105 -43.1631 250° West  Level Estimated
07:32AM -22.9105 -43.1631 250° West  Level Estimated
07:33AM -22.9105 -43.1631 250° West  Level Estimated
07:34AM -22.9105 -43.1631 250° West  Level Estimated
07:35AM -22.9105 -43.1631 250° West  Level Estimated
07:36AM -22.9105 -43.1631 250° West  Level Estimated
07:37AM -22.9105 -43.1631 250° West  Level Estimated
07:38AM -22.9105 -43.1631 250° West  Level Estimated
07:39AM -22.9105 -43.1631 250° West  Level Estimated
07:40AM -22.9105 -43.1631 250° West  Level Estimated
07:41AM -22.9105 -43.1631 250° West  Level Estimated
07:42AM -22.9105 -43.1631 250° West  Level Estimated
07:43AM -22.9105 -43.1631 250° West  Level Estimated
07:44AM -22.9105 -43.1631 250° West  Level Estimated
07:45AM -22.9105 -43.1631 250° West  Level Estimated
07:46AM -22.9105 -43.1631 250° West  Level Estimated
07:47AM -22.9105 -43.1631 250° West  Level Estimated
07:47AM -23.6230 -46.6600 250° West  Level FlightAware
07:48AM -22.9105 -43.1631 250° West  Level Estimated
07:49AM -22.9105 -43.1631 250° West  Level Estimated
07:50AM -22.9105 -43.1631 250° West  Level Estimated
07:51AM -22.9105 -43.1631 250° West  Level Estimated
07:52AM -22.9105 -43.1631 250° West  Level Estimated
07:53AM -22.9105 -43.1631 250° West  Level Estimated
07:54AM -22.9105 -43.1631 250° West  Level Estimated
07:55AM -23.6210 -46.6610 360° North  Level FlightAware
07:56AM -23.6200 -46.6610 360° North 1,500 Level FlightAware
07:57AM -23.6460 -46.6420 144° Southeast 155 178 3,500 2,880 Climbing FlightAware
07:58AM -23.6580 -46.6330 146° Southeast 166 191 4,200 1,740 Climbing FlightAware
07:58AM -23.6750 -46.6210 147° Southeast 195 224 4,800 1,620 Climbing FlightAware
07:58AM -23.6900 -46.6100 146° Southeast 220 253 5,400 1,920 Climbing FlightAware
07:58AM -23.6980 -46.6030 141° Southeast 234 269 5,700 1,500 Climbing FlightAware
07:59AM -23.7030 -46.5920 116° Southeast 255 293 5,900 1,380 Climbing FlightAware
07:59AM -23.7040 -46.5840 98° East 271 312 6,100 3,840 Climbing FlightAware
07:59AM -23.6960 -46.5540 74° East 267 307 7,700 4,260 Climbing FlightAware
07:59AM -23.6850 -46.5300 63° Northeast 263 303 9,100 3,000 Climbing FlightAware
08:00AM -23.6670 -46.4860 66° East 280 322 10,500 2,160 Climbing FlightAware
08:01AM -23.6470 -46.4350 67° East 289 333 11,800 2,040 Climbing FlightAware
08:01AM -23.6310 -46.3920 68° East 294 338 12,900 1,980 Climbing FlightAware
08:02AM -23.6130 -46.3410 69° East 297 342 14,100 1,920 Climbing FlightAware
08:02AM -23.5990 -46.3020 69° East 303 349 15,000 1,920 Climbing FlightAware
08:03AM -23.5830 -46.2560 69° East 314 361 16,000 1,860 Climbing FlightAware
08:03AM -23.5620 -46.1960 69° East 324 373 17,300 2,040 Climbing FlightAware
08:04AM -23.5410 -46.1400 68° East 329 379 18,600 1,980 Climbing FlightAware
08:05AM -23.5230 -46.0900 69° East 340 391 19,600 1,920 Climbing FlightAware
08:05AM -23.5020 -46.0340 68° East 337 388 20,800 2,040 Climbing FlightAware
08:06AM -23.4820 -45.9790 68° East 339 390 22,000 1,800 Climbing FlightAware
08:06AM -23.4620 -45.9250 68° East 347 399 22,900 840 Climbing FlightAware
08:07AM -23.4450 -45.8620 74° East 352 405 23,000 60 Climbing FlightAware
08:08AM -23.4300 -45.8010 75° East 351 404 23,000  Level FlightAware
08:08AM -23.4200 -45.7570 76° East 352 405 23,000  Level FlightAware
08:09AM -23.4040 -45.6900 75° East 353 406 23,000  Level FlightAware
08:09AM -23.3890 -45.6300 75° East 353 406 23,000  Level FlightAware
08:10AM -23.3760 -45.5760 75° East 353 406 23,000  Level FlightAware
08:11AM -23.3590 -45.5060 75° East 347 399 23,000  Level FlightAware
08:11AM -23.3400 -45.4310 75° East 347 399 23,000  Level FlightAware
08:12AM -23.3260 -45.3720 76° East 348 400 23,000  Level FlightAware
08:12AM -23.3130 -45.3200 75° East 347 399 23,000  Level FlightAware
08:13AM -23.2990 -45.2600 76° East 346 398 23,000  Level FlightAware
08:13AM -23.2840 -45.2000 75° East 347 399 23,000  Level FlightAware
08:14AM -23.2690 -45.1400 75° East 346 398 23,000  Level FlightAware
08:14AM -23.2560 -45.0930 73° East 343 395 23,000  Level FlightAware
08:15AM -23.2410 -45.0710 53° Northeast 309 356 23,000  Level FlightAware
08:15AM -23.2180 -45.0550 33° Northeast 285 328 23,000  Level FlightAware
08:15AM -23.1920 -45.0480 14° North 276 318 23,000  Level FlightAware
08:16AM -23.1560 -45.0540 351° North 261 300 23,000  Level FlightAware
08:16AM -23.1410 -45.0640 328° Northwest 259 298 23,000  Level FlightAware
08:17AM -23.1230 -45.0830 316° Northwest 253 291 23,000  Level FlightAware
08:17AM -23.1130 -45.1050 296° West 260 299 23,000  Level FlightAware
08:17AM -23.1090 -45.1250 282° West 269 310 23,000  Level FlightAware
08:18AM -23.1180 -45.1800 260° West 285 328 23,000  Level FlightAware
08:18AM -23.1300 -45.2280 255° West 284 327 23,000  Level FlightAware
08:19AM -23.1420 -45.2770 255° West 282 325 23,000  Level FlightAware
08:19AM -23.1510 -45.3110 254° West 293 337 23,000  Level FlightAware
08:20AM -23.1680 -45.3350 232° Southwest 308 354 23,000  Level FlightAware
08:20AM -23.1940 -45.3530 212° Southwest 331 381 23,000  Level FlightAware
08:20AM -23.2180 -45.3580 191° South 353 406 23,000  Level FlightAware
08:21AM -23.2490 -45.3530 172° South 360 414 23,000  Level FlightAware
08:21AM -23.2890 -45.3160 140° Southeast 372 428 23,000  Level FlightAware
08:21AM -23.2960 -45.2990 114° Southeast 368 423 23,000  Level FlightAware
08:21AM -23.2990 -45.2720 97° East 355 409 23,000  Level FlightAware
08:22AM -23.2950 -45.2450 81° East 339 390 23,000  Level FlightAware
08:22AM -23.2800 -45.1860 75° East 341 392 23,000  Level FlightAware
08:23AM -23.2660 -45.1300 75° East 344 396 23,000  Level FlightAware
08:23AM -23.2570 -45.0970 73° East 334 384 23,000  Level FlightAware
08:24AM -23.2210 -45.0570 46° Northeast 287 330 23,000  Level FlightAware
08:24AM -23.2030 -45.0510 17° North 281 323 23,000  Level FlightAware
08:25AM -23.1670 -45.0540 356° North 256 295 23,000  Level FlightAware
08:25AM -23.1390 -45.0700 332° Northwest 251 289 23,000  Level FlightAware
08:25AM -23.1190 -45.1010 305° West 259 298 23,000  Level FlightAware
08:26AM -23.1140 -45.1280 281° West 270 311 23,000  Level FlightAware
08:26AM -23.1150 -45.1480 267° West 280 322 23,000  Level FlightAware
08:27AM -23.1290 -45.2030 255° West 284 327 23,000  Level FlightAware
08:27AM -23.1410 -45.2530 255° West 284 327 23,000  Level FlightAware
08:28AM -23.1530 -45.3000 254° West 286 329 23,000  Level FlightAware
08:28AM -23.1680 -45.3250 237° Southwest 299 344 23,000  Level FlightAware
08:28AM -23.1840 -45.3400 221° Southwest 323 372 23,000  Level FlightAware
08:29AM -23.2060 -45.3500 203° Southwest 333 383 23,000  Level FlightAware
08:29AM -23.2500 -45.3470 176° South 364 419 23,000  Level FlightAware
08:30AM -23.2690 -45.3350 150° Southeast 372 428 23,000  Level FlightAware
08:30AM -23.2800 -45.3250 140° Southeast 375 432 23,000  Level FlightAware
08:30AM -23.2910 -45.3070 124° Southeast 373 429 23,000  Level FlightAware
08:30AM -23.2980 -45.2690 101° East 354 407 23,000  Level FlightAware
08:31AM -23.2870 -45.2170 77° East 337 388 23,000  Level FlightAware
08:31AM -23.2750 -45.1680 75° East 340 391 23,000  Level FlightAware
08:32AM -23.2590 -45.1030 75° East 333 383 23,000  Level FlightAware
08:32AM -23.2520 -45.0870 65° Northeast 324 373 23,000  Level FlightAware
08:32AM -23.2260 -45.0610 43° Northeast 285 328 23,000  Level FlightAware
08:33AM -23.2020 -45.0520 19° North 275 316 23,000  Level FlightAware
08:33AM -23.1610 -45.0580 352° North 250 288 23,000  Level FlightAware
08:34AM -23.1270 -45.0720 339° North 264 304 23,000  Level FlightAware
08:34AM -23.0950 -45.0650 11° North 284 327 23,000  Level FlightAware
08:34AM -23.0780 -45.0510 37° Northeast 310 357 23,000  Level FlightAware
08:35AM -23.0660 -45.0310 57° Northeast 330 380 23,000  Level FlightAware
08:35AM -23.0540 -44.9820 75° East 346 398 23,000  Level FlightAware
08:36AM -23.0410 -44.9210 77° East 346 398 23,000  Level FlightAware
08:36AM -23.0270 -44.8540 77° East 347 399 23,000  Level FlightAware
08:37AM -23.0140 -44.7940 77° East 348 400 23,000  Level FlightAware
08:38AM -22.9990 -44.7270 76° East 345 397 23,000  Level FlightAware
08:38AM -22.9820 -44.6510 76° East 342 394 23,000  Level FlightAware
08:39AM -22.9760 -44.6360 67° East 333 383 23,000  Level FlightAware
08:39AM -22.9660 -44.6240 48° Northeast 307 353 23,000  Level FlightAware
08:39AM -22.9400 -44.6110 25° Northeast 284 327 23,000  Level FlightAware
08:39AM -22.9210 -44.6080 North 273 314 23,000  Level FlightAware
08:40AM -22.8840 -44.6150 350° North 262 302 23,000  Level FlightAware
08:40AM -22.8640 -44.6300 325° Northwest 264 304 23,000  Level FlightAware
08:41AM -22.8490 -44.6520 306° West 262 302 23,000  Level FlightAware
08:41AM -22.8430 -44.6700 290° West 271 312 23,000  Level FlightAware
08:41AM -22.8460 -44.7170 266° West 290 334 23,000  Level FlightAware
08:42AM -22.8530 -44.7310 242° Southwest 301 346 23,000  Level FlightAware
08:42AM -22.8670 -44.7490 230° Southwest 315 362 23,000 -1,020 Level FlightAware
08:42AM -22.8940 -44.7680 213° Southwest 336 387 22,400 -1,380 Descending FlightAware
08:42AM -22.9170 -44.7720 189° South 355 409 22,200 -1,080 Descending FlightAware
08:43AM -22.9500 -44.7640 167° South 357 411 21,800 -1,200 Descending FlightAware
08:43AM -22.9640 -44.7530 144° Southeast 366 421 21,600 -1,200 Descending FlightAware
08:43AM -22.9750 -44.7400 133° Southeast 365 420 21,400 -1,440 Descending FlightAware
08:43AM -22.9830 -44.7230 117° Southeast 360 414 21,100 -1,500 Descending FlightAware
08:43AM -22.9870 -44.7000 101° East 347 399 20,800 -1,260 Descending FlightAware
08:44AM -22.9790 -44.6500 80° East 328 377 20,200 -1,560 Descending FlightAware
08:45AM -22.9660 -44.5920 76° East 335 386 19,100 -1,800 Descending FlightAware
08:45AM -22.9530 -44.5260 78° East 335 386 18,000 -1,140 Descending FlightAware
08:46AM -22.9370 -44.4470 78° East 333 383 17,400 -420 Descending FlightAware
08:47AM -22.9270 -44.3950 78° East 333 383 17,400  Level FlightAware
08:47AM -22.9170 -44.3450 78° East 333 383 17,400  Level FlightAware
08:48AM -22.9070 -44.2950 78° East 333 383 17,400  Level FlightAware
08:48AM -22.8970 -44.2450 78° East 333 383 17,400  Level FlightAware
08:49AM -22.8880 -44.1980 78° East 333 383 17,400 -2,700 Level FlightAware
08:51AM -22.8390 -44.0550 70° East 300 345 11,800 -3,360 Descending FlightAware
08:51AM -22.8250 -44.0460 31° Northeast 299 344 11,800  Level FlightAware
08:51AM -22.7690 -44.0330 12° North 299 344 11,800  Level FlightAware
08:52AM -22.7290 -44.0230 13° North 294 338 11,800  Level FlightAware
08:52AM -22.6820 -44.0140 10° North 295 339 11,800  Level FlightAware
08:53AM -22.6380 -44.0050 11° North 287 330 11,800  Level FlightAware
08:54AM -22.5920 -43.9940 12° North 287 330 11,800 -600 Level FlightAware
08:54AM -22.6080 -43.9390 108° East 553 636 11,300 -1,260 Descending FlightAware
08:55AM -22.6260 -43.8650 105° East 268 308 10,500 -1,740 Descending FlightAware
08:55AM -22.6350 -43.8260 104° East 261 300 8,900 -2,940 Descending FlightAware
08:56AM -22.6420 -43.7970 105° East 264 304 8,100 -1,620 Descending FlightAware
08:56AM -22.6480 -43.7730 105° East 262 302 7,800 -1,020 Descending FlightAware
08:56AM -22.6550 -43.7430 104° East 252 290 7,400 -1,200 Descending FlightAware
08:57AM -22.6600 -43.7220 104° East 252 290 7,000 -1,200 Descending FlightAware
08:57AM -22.6660 -43.6970 105° East 251 289 6,600 -1,200 Descending FlightAware
08:57AM -22.6710 -43.6780 106° East 248 285 6,300 -1,200 Descending FlightAware
08:58AM -22.6770 -43.6530 105° East 245 282 5,900 -1,020 Descending FlightAware
08:58AM -22.6820 -43.6310 104° East 246 283 5,600 -1,080 Descending FlightAware
08:59AM -22.6890 -43.6010 104° East 244 281 5,000 -900 Descending FlightAware
08:59AM -22.6940 -43.5820 106° East 237 273 4,900 -600 Descending FlightAware
08:59AM -22.7000 -43.5560 104° East 226 260 4,600 -780 Descending FlightAware
08:59AM -22.7040 -43.5390 104° East 223 257 4,400 -480 Descending FlightAware
09:00AM -22.7110 -43.5110 105° East 225 259 4,300 -300 Descending FlightAware
09:00AM -22.7190 -43.4650 101° East 213 245 4,100 -720 Descending FlightAware
09:01AM -22.7210 -43.4450 96° East 210 242 3,700 -1,200 Descending FlightAware
09:01AM -22.7220 -43.4250 93° East 210 242 3,300 -1,320 Descending FlightAware
09:01AM -22.7240 -43.4020 95° East 211 243 2,800 -1,440 Descending FlightAware
09:02AM -22.7280 -43.3930 116° Southeast 206 237 2,600 -1,020 Descending FlightAware
09:02AM -22.7330 -43.3840 121° Southeast 197 227 2,400 -840 Descending FlightAware
09:02AM -22.7430 -43.3690 126° Southeast 182 209 2,100 -960 Descending FlightAware
09:03AM -22.7620 -43.3400 125° Southeast 150 173 1,500 -900 Descending FlightAware
09:03AM -22.7680 -43.3300 123° Southeast 134 154 1,300 -660 Descending FlightAware
09:04AM -22.7760 -43.3190 128° Southeast 132 152 1,000 -780 Descending FlightAware
09:04AM -22.7900 -43.2980 126° Southeast 134 154 600 -840 Descending FlightAware
09:04AM -22.7960 -43.2890 126° Southeast 134 154 400 -780 Descending FlightAware
09:05AM -22.8050 -43.2750 125° Southeast 130 150 100 -360 Descending FlightAware
09:05AM -22.8120 -43.2640 125° Southeast 130 150 100  Level FlightAware
09:06AM -22.8210 -43.2510 127° Southeast 130 150 -120 Descending FlightAware
09:06AM -22.8220 -43.2490 118° Southeast 130 150  Level FlightAware
09:07AM -22.8120 -43.2390 43° Northeast 130 150  Level FlightAware
09:09AM -22.9105 -43.1631 145° Southeast  Level Estimated
09:09AM -22.8200 -43.2470 145° Southeast  Level FlightAware
09:12AM -22.8190 -43.2460 43° Northeast  Level FlightAware